createdAt,value
2023-05-09T00:01:24.712Z,99.90
2023-05-09T00:03:52.292Z,99.90
2023-05-09T00:06:19.806Z,99.90
2023-05-09T00:08:46.785Z,99.90
2023-05-09T00:11:13.939Z,99.90
2023-05-09T00:13:41.952Z,99.90
2023-05-09T00:16:09.346Z,99.90
2023-05-09T00:18:37.540Z,99.90
2023-05-09T00:21:04.519Z,99.90
2023-05-09T00:23:31.342Z,99.90
2023-05-09T00:25:59.176Z,99.90
2023-05-09T00:28:25.996Z,99.90
2023-05-09T00:30:52.988Z,99.90
2023-05-09T00:33:20.434Z,99.90
2023-05-09T00:35:47.255Z,99.90
2023-05-09T00:38:14.190Z,99.90
2023-05-09T00:40:41.075Z,99.90
2023-05-09T00:43:07.954Z,99.90
2023-05-09T00:45:34.755Z,99.90
2023-05-09T00:48:01.644Z,99.90
2023-05-09T00:50:28.596Z,99.90
2023-05-09T00:52:55.807Z,99.90
2023-05-09T00:55:23.183Z,99.90
2023-05-09T00:57:50.000Z,99.90
2023-05-09T01:00:17.482Z,99.90
2023-05-09T01:02:46.834Z,99.90
2023-05-09T01:05:14.133Z,99.90
2023-05-09T01:07:56.286Z,99.90
2023-05-09T01:10:44.908Z,99.90
2023-05-09T01:13:27.733Z,99.90
2023-05-09T01:16:22.072Z,99.90
2023-05-09T01:19:10.820Z,99.90
2023-05-09T01:21:37.989Z,99.90
2023-05-09T01:24:33.897Z,99.90
2023-05-09T01:27:20.889Z,99.90
2023-05-09T01:29:48.503Z,99.90
2023-05-09T01:32:23.112Z,99.90
2023-05-09T01:34:51.428Z,99.90
2023-05-09T01:37:19.704Z,99.90
2023-05-09T01:39:51.538Z,99.90
2023-05-09T01:42:19.425Z,99.90
2023-05-09T01:44:46.491Z,99.90
2023-05-09T01:47:13.376Z,99.90
2023-05-09T01:49:40.435Z,99.90
2023-05-09T01:52:12.202Z,99.90
2023-05-09T01:54:39.149Z,99.90
2023-05-09T01:57:06.679Z,99.90
2023-05-09T01:59:34.555Z,99.90
2023-05-09T02:02:03.046Z,99.90
2023-05-09T02:04:29.931Z,99.90
2023-05-09T02:06:57.259Z,99.90
2023-05-09T02:09:24.675Z,99.90
2023-05-09T02:11:51.586Z,99.90
2023-05-09T02:14:18.454Z,99.90
2023-05-09T02:16:45.426Z,99.90
2023-05-09T02:19:12.292Z,99.90
2023-05-09T02:21:39.142Z,99.90
2023-05-09T02:24:06.417Z,99.90
2023-05-09T02:26:35.042Z,99.90
2023-05-09T02:29:02.908Z,99.90
2023-05-09T02:31:29.787Z,99.90
2023-05-09T02:33:56.755Z,99.90
2023-05-09T02:36:23.787Z,99.90
2023-05-09T02:38:50.701Z,99.90
2023-05-09T02:41:17.637Z,99.90
2023-05-09T02:43:44.956Z,99.90
2023-05-09T02:46:11.854Z,99.90
2023-05-09T02:48:38.742Z,99.90
2023-05-09T02:51:05.666Z,99.90
2023-05-09T02:53:32.583Z,99.90
2023-05-09T02:55:59.487Z,99.90
2023-05-09T02:58:26.415Z,99.90
2023-05-09T03:00:53.281Z,99.90
2023-05-09T03:03:22.214Z,99.90
2023-05-09T03:05:50.807Z,99.90
2023-05-09T03:08:17.699Z,99.90
2023-05-09T03:10:44.544Z,99.90
2023-05-09T03:13:11.570Z,99.90
2023-05-09T03:15:38.452Z,99.90
2023-05-09T03:18:06.387Z,99.90
2023-05-09T03:20:33.324Z,99.90
2023-05-09T03:23:00.333Z,99.90
2023-05-09T03:25:27.274Z,99.90
2023-05-09T03:27:54.219Z,99.90
2023-05-09T03:30:22.355Z,99.90
2023-05-09T03:32:49.981Z,99.90
2023-05-09T03:35:17.033Z,99.90
2023-05-09T03:37:44.127Z,99.90
2023-05-09T03:40:11.662Z,99.90
2023-05-09T03:42:50.540Z,99.90
2023-05-09T03:45:17.388Z,99.90
2023-05-09T03:47:46.352Z,99.90
2023-05-09T03:50:13.831Z,99.90
2023-05-09T03:52:41.254Z,99.90
2023-05-09T03:55:12.274Z,99.90
2023-05-09T03:57:39.291Z,99.90
2023-05-09T04:00:08.154Z,99.90
2023-05-09T04:02:41.790Z,99.90
2023-05-09T04:05:13.620Z,99.90
2023-05-09T04:07:41.283Z,99.90
2023-05-09T04:10:09.388Z,99.90
2023-05-09T04:12:36.415Z,99.90
2023-05-09T04:15:03.745Z,99.90
2023-05-09T04:17:31.371Z,99.90
2023-05-09T04:19:58.272Z,99.90
2023-05-09T04:22:25.146Z,99.90
2023-05-09T04:24:52.088Z,99.90
2023-05-09T04:27:19.027Z,99.90
2023-05-09T04:29:46.804Z,99.90
2023-05-09T04:32:15.801Z,99.90
2023-05-09T04:34:43.051Z,99.90
2023-05-09T04:37:17.170Z,99.90
2023-05-09T04:39:44.444Z,99.90
2023-05-09T04:42:18.253Z,99.90
2023-05-09T04:44:45.194Z,99.90
2023-05-09T04:47:12.226Z,99.90
2023-05-09T04:49:39.163Z,99.90
2023-05-09T04:52:07.042Z,99.90
2023-05-09T04:54:34.240Z,99.90
2023-05-09T04:57:13.688Z,99.90
2023-05-09T04:59:42.137Z,99.90
2023-05-09T05:02:10.180Z,99.90
2023-05-09T05:04:38.159Z,99.90
2023-05-09T05:07:05.382Z,99.90
2023-05-09T05:09:32.769Z,99.90
2023-05-09T05:12:02.281Z,99.90
2023-05-09T05:14:31.503Z,99.90
2023-05-09T05:16:58.658Z,99.90
2023-05-09T05:19:25.609Z,99.90
2023-05-09T05:21:52.503Z,99.90
2023-05-09T05:24:19.475Z,99.90
2023-05-09T05:26:47.143Z,99.90
2023-05-09T05:29:14.847Z,99.90
2023-05-09T05:31:41.804Z,99.90
2023-05-09T05:34:08.650Z,99.90
2023-05-09T05:36:35.667Z,99.90
2023-05-09T05:39:02.620Z,99.90
2023-05-09T05:41:29.482Z,99.90
2023-05-09T05:43:56.635Z,99.90
2023-05-09T05:46:23.582Z,99.90
2023-05-09T05:48:51.194Z,99.90
2023-05-09T05:51:18.136Z,99.90
2023-05-09T05:53:45.954Z,99.90
2023-05-09T05:56:13.096Z,99.90
2023-05-09T05:58:40.860Z,99.90
2023-05-09T06:01:08.415Z,99.90
2023-05-09T06:03:35.438Z,99.90
2023-05-09T06:06:05.992Z,99.90
2023-05-09T06:08:32.956Z,99.90
2023-05-09T06:11:01.105Z,99.90
2023-05-09T06:13:28.043Z,99.90
2023-05-09T06:16:15.116Z,99.90
2023-05-09T06:18:48.412Z,99.90
2023-05-09T06:21:15.408Z,99.90
2023-05-09T06:23:56.937Z,99.90
2023-05-09T06:26:29.417Z,99.90
2023-05-09T06:28:56.491Z,99.90
2023-05-09T06:31:24.922Z,99.90
2023-05-09T06:33:52.743Z,99.90
2023-05-09T06:36:19.624Z,99.90
2023-05-09T06:38:46.653Z,99.90
2023-05-09T06:41:13.581Z,99.90
2023-05-09T06:43:40.475Z,99.90
2023-05-09T06:46:07.454Z,99.90
2023-05-09T06:48:34.371Z,99.90
2023-05-09T06:51:01.311Z,99.90
2023-05-09T06:53:28.171Z,99.90
2023-05-09T06:55:55.132Z,99.90
2023-05-09T06:58:21.996Z,99.90
2023-05-09T07:00:49.184Z,99.90
2023-05-09T07:03:16.035Z,99.90
2023-05-09T07:05:43.190Z,99.90
2023-05-09T07:08:10.060Z,99.90
2023-05-09T07:10:38.355Z,99.90
2023-05-09T07:13:05.613Z,99.90
2023-05-09T07:15:41.468Z,99.90
2023-05-09T07:18:09.340Z,99.90
2023-05-09T07:20:36.458Z,99.90
2023-05-09T07:23:04.288Z,99.90
2023-05-09T07:25:31.204Z,99.90
2023-05-09T07:27:58.224Z,99.90
2023-05-09T07:30:25.330Z,99.90
2023-05-09T07:32:52.524Z,99.90
2023-05-09T07:35:19.907Z,99.90
2023-05-09T07:37:46.855Z,99.90
2023-05-09T07:40:14.225Z,99.90
2023-05-09T07:42:42.218Z,99.90
2023-05-09T07:45:10.905Z,99.90
2023-05-09T07:47:37.829Z,99.90
2023-05-09T07:50:05.081Z,99.90
2023-05-09T07:52:31.969Z,99.90
2023-05-09T07:54:58.928Z,99.90
2023-05-09T07:57:25.856Z,99.90
2023-05-09T07:59:52.741Z,99.90
2023-05-09T08:02:19.691Z,99.90
2023-05-09T08:04:49.091Z,99.90
2023-05-09T08:07:16.236Z,99.90
2023-05-09T08:09:43.109Z,99.90
2023-05-09T08:12:09.987Z,99.90
2023-05-09T08:14:36.847Z,99.90
2023-05-09T08:17:03.740Z,99.90
2023-05-09T08:19:30.677Z,99.90
2023-05-09T08:21:57.509Z,99.90
2023-05-09T08:24:24.395Z,99.90
2023-05-09T08:26:51.236Z,99.90
2023-05-09T08:29:18.167Z,99.90
2023-05-09T08:31:45.211Z,99.90
2023-05-09T08:34:12.224Z,99.90
2023-05-09T08:36:40.950Z,99.90
2023-05-09T08:39:09.553Z,99.90
2023-05-09T08:41:36.431Z,99.90
2023-05-09T08:44:03.436Z,99.90
2023-05-09T08:46:36.584Z,99.90
2023-05-09T08:49:05.475Z,99.70
2023-05-09T08:51:32.359Z,99.00
2023-05-09T08:54:00.314Z,98.80
2023-05-09T08:56:27.188Z,98.10
2023-05-09T08:58:54.469Z,98.40
2023-05-09T09:01:21.375Z,98.40
2023-05-09T09:03:49.578Z,97.30
2023-05-09T09:06:16.972Z,96.70
2023-05-09T09:08:44.365Z,95.30
2023-05-09T09:11:12.326Z,95.10
2023-05-09T09:13:40.803Z,92.90
2023-05-09T09:16:12.735Z,92.20
2023-05-09T09:18:39.940Z,92.60
2023-05-09T09:21:07.653Z,93.30
2023-05-09T09:23:34.519Z,93.20
2023-05-09T09:26:02.254Z,90.80
2023-05-09T09:28:29.538Z,92.00
2023-05-09T09:30:56.613Z,92.20
2023-05-09T09:33:24.778Z,91.40
2023-05-09T09:35:53.102Z,91.20
2023-05-09T09:38:20.971Z,90.90
2023-05-09T09:40:57.470Z,90.60
2023-05-09T09:43:28.908Z,90.20
2023-05-09T09:45:57.126Z,90.30
2023-05-09T09:48:25.715Z,90.20
2023-05-09T09:50:55.223Z,90.00
2023-05-09T09:53:22.123Z,86.40
2023-05-09T09:55:52.209Z,87.70
2023-05-09T09:58:21.977Z,85.50
2023-05-09T10:00:50.443Z,82.80
2023-05-09T10:03:17.671Z,81.10
2023-05-09T10:05:45.078Z,82.30
2023-05-09T10:08:12.024Z,82.50
2023-05-09T10:10:38.928Z,82.50
2023-05-09T10:13:10.640Z,82.60
2023-05-09T10:15:49.291Z,80.50
2023-05-09T10:18:20.397Z,80.80
2023-05-09T10:20:47.365Z,82.10
2023-05-09T10:23:14.236Z,79.80
2023-05-09T10:26:10.420Z,79.30
2023-05-09T10:28:37.304Z,79.30
2023-05-09T10:31:08.774Z,79.30
2023-05-09T10:33:44.238Z,78.60
2023-05-09T10:36:11.100Z,78.50
2023-05-09T10:38:38.053Z,76.90
2023-05-09T10:41:05.273Z,74.30
2023-05-09T10:43:34.251Z,74.80
2023-05-09T10:46:06.274Z,75.10
2023-05-09T10:48:33.375Z,73.90
2023-05-09T10:51:03.688Z,72.20
2023-05-09T10:53:50.083Z,71.60
2023-05-09T10:56:31.830Z,69.70
2023-05-09T10:58:59.429Z,70.40
2023-05-09T11:01:37.750Z,71.00
2023-05-09T11:04:15.126Z,70.80
2023-05-09T11:06:42.393Z,71.00
2023-05-09T11:09:34.383Z,70.60
2023-05-09T11:12:07.068Z,69.60
2023-05-09T11:14:47.643Z,68.70
2023-05-09T11:17:27.124Z,68.70
2023-05-09T11:19:57.875Z,69.20
2023-05-09T11:22:28.613Z,67.00
2023-05-09T11:25:17.082Z,67.10
2023-05-09T11:27:44.855Z,66.50
2023-05-09T11:30:14.474Z,66.50
2023-05-09T11:32:45.875Z,65.70
2023-05-09T11:35:20.892Z,66.10
2023-05-09T11:38:04.859Z,66.70
2023-05-09T11:40:32.502Z,66.50
2023-05-09T11:43:00.032Z,65.90
2023-05-09T11:45:31.634Z,66.20
2023-05-09T11:47:58.835Z,65.90
2023-05-09T11:50:25.888Z,65.10
2023-05-09T11:52:53.434Z,64.30
2023-05-09T11:55:22.902Z,62.90
2023-05-09T11:57:53.909Z,62.00
2023-05-09T12:00:25.684Z,60.90
2023-05-09T12:02:53.319Z,61.90
2023-05-09T12:05:21.429Z,62.70
2023-05-09T12:07:48.436Z,64.20
2023-05-09T12:10:20.792Z,64.50
2023-05-09T12:12:49.601Z,63.10
2023-05-09T12:15:17.094Z,62.50
2023-05-09T12:17:44.711Z,62.30
2023-05-09T12:20:11.821Z,62.20
2023-05-09T12:22:38.762Z,61.70
2023-05-09T12:25:07.635Z,62.70
2023-05-09T12:27:38.433Z,60.80
2023-05-09T12:30:10.287Z,59.70
2023-05-09T12:32:39.226Z,60.10
2023-05-09T12:35:10.473Z,60.60
2023-05-09T12:37:38.113Z,60.40
2023-05-09T12:40:15.973Z,61.30
2023-05-09T12:42:46.261Z,60.90
2023-05-09T12:45:13.962Z,60.70
2023-05-09T12:47:45.531Z,61.80
2023-05-09T12:50:13.467Z,62.40
2023-05-09T12:52:58.587Z,61.90
2023-05-09T12:55:29.408Z,62.80
2023-05-09T12:58:00.771Z,62.60
2023-05-09T13:00:27.693Z,62.90
2023-05-09T13:02:54.989Z,62.10
2023-05-09T13:05:22.719Z,61.80
2023-05-09T13:07:56.120Z,61.80
2023-05-09T13:10:28.469Z,61.60
2023-05-09T13:12:55.491Z,62.40
2023-05-09T13:15:23.139Z,61.70
2023-05-09T13:17:51.435Z,61.80
2023-05-09T13:20:18.878Z,62.50
2023-05-09T13:22:46.087Z,63.10
2023-05-09T13:25:13.051Z,65.20
2023-05-09T13:27:40.041Z,64.70
2023-05-09T13:30:07.815Z,65.20
2023-05-09T13:32:36.601Z,65.40
2023-05-09T13:35:06.825Z,66.20
2023-05-09T13:37:37.185Z,66.90
2023-05-09T13:40:04.530Z,66.20
2023-05-09T13:42:33.462Z,67.50
2023-05-09T13:45:00.517Z,68.00
2023-05-09T13:47:27.622Z,68.00
2023-05-09T13:49:54.609Z,69.30
2023-05-09T13:52:21.498Z,68.30
2023-05-09T13:54:48.571Z,67.80
2023-05-09T13:57:15.742Z,68.10
2023-05-09T13:59:42.690Z,68.90
2023-05-09T14:02:11.051Z,68.50
2023-05-09T14:04:38.086Z,68.70
2023-05-09T14:07:04.984Z,68.30
2023-05-09T14:09:38.168Z,72.50
2023-05-09T14:12:05.338Z,78.10
2023-05-09T14:14:32.344Z,84.60
2023-05-09T14:17:00.065Z,89.60
2023-05-09T14:19:28.781Z,91.70
2023-05-09T14:21:55.776Z,93.90
2023-05-09T14:24:22.722Z,94.80
2023-05-09T14:26:49.619Z,91.80
2023-05-09T14:29:16.781Z,92.30
2023-05-09T14:31:43.712Z,95.10
2023-05-09T14:34:11.543Z,99.10
2023-05-09T14:36:38.467Z,99.90
2023-05-09T14:39:06.420Z,99.90
2023-05-09T14:41:33.306Z,99.90
2023-05-09T14:44:00.262Z,99.90
2023-05-09T14:46:27.277Z,99.90
2023-05-09T14:48:54.416Z,99.90
2023-05-09T14:51:21.886Z,99.90
2023-05-09T14:53:48.831Z,99.90
2023-05-09T14:56:15.856Z,99.90
2023-05-09T14:58:42.728Z,99.90
2023-05-09T15:01:09.693Z,99.90
2023-05-09T15:03:36.890Z,99.90
2023-05-09T15:06:03.910Z,99.90
2023-05-09T15:08:30.894Z,99.90
2023-05-09T15:10:57.871Z,99.90
2023-05-09T15:13:24.805Z,99.90
2023-05-09T15:15:51.797Z,99.90
2023-05-09T15:18:20.141Z,99.90
2023-05-09T15:20:47.035Z,99.90
2023-05-09T15:23:13.949Z,99.90
2023-05-09T15:25:42.202Z,99.90
2023-05-09T15:28:09.136Z,99.90
2023-05-09T15:30:38.364Z,99.90
2023-05-09T15:33:05.482Z,99.90
2023-05-09T15:35:32.429Z,99.90
2023-05-09T15:37:59.763Z,99.90
2023-05-09T15:40:27.294Z,99.90
2023-05-09T15:42:54.144Z,99.90
2023-05-09T15:45:21.040Z,99.90
2023-05-09T15:47:48.326Z,99.90
2023-05-09T15:50:15.443Z,99.90
2023-05-09T15:52:43.018Z,99.90
2023-05-09T15:55:10.690Z,99.90
2023-05-09T15:57:37.674Z,99.90
2023-05-09T16:00:05.630Z,99.90
2023-05-09T16:02:39.688Z,99.90
2023-05-09T16:05:06.902Z,99.90
2023-05-09T16:07:35.643Z,99.90
2023-05-09T16:10:03.156Z,99.90
2023-05-09T16:12:32.839Z,99.90
2023-05-09T16:15:00.040Z,99.90
2023-05-09T16:17:27.076Z,99.90
2023-05-09T16:19:54.912Z,99.90
2023-05-09T16:22:21.950Z,99.90
2023-05-09T16:24:49.244Z,99.90
2023-05-09T16:27:16.529Z,99.90
2023-05-09T16:29:43.417Z,99.90
2023-05-09T16:32:10.840Z,99.90
2023-05-09T16:34:37.829Z,99.90
2023-05-09T16:37:04.860Z,99.90
2023-05-09T16:39:32.342Z,99.90
2023-05-09T16:41:59.644Z,99.90
2023-05-09T16:44:26.684Z,99.90
2023-05-09T16:46:53.719Z,99.90
2023-05-09T16:49:20.560Z,99.90
2023-05-09T16:51:47.466Z,99.90
2023-05-09T16:54:14.343Z,99.90
2023-05-09T16:56:42.322Z,99.90
2023-05-09T16:59:09.210Z,99.90
2023-05-09T17:01:36.212Z,99.90
2023-05-09T17:04:06.604Z,99.90
2023-05-09T17:06:34.217Z,99.90
2023-05-09T17:09:01.427Z,99.90
2023-05-09T17:11:29.128Z,99.90
2023-05-09T17:13:56.062Z,99.90
2023-05-09T17:16:22.930Z,99.90
2023-05-09T17:18:49.815Z,99.90
2023-05-09T17:21:17.023Z,99.90
2023-05-09T17:23:44.002Z,99.90
2023-05-09T17:26:10.958Z,99.90
2023-05-09T17:28:37.924Z,99.90
2023-05-09T17:31:04.809Z,99.90
2023-05-09T17:33:31.735Z,99.90
2023-05-09T17:36:00.092Z,99.90
2023-05-09T17:38:27.024Z,99.90
2023-05-09T17:40:53.925Z,99.90
2023-05-09T17:43:21.840Z,99.90
2023-05-09T17:45:48.776Z,99.90
2023-05-09T17:48:16.046Z,99.90
2023-05-09T17:50:43.882Z,99.90
2023-05-09T17:53:10.794Z,99.90
2023-05-09T17:55:37.732Z,99.90
2023-05-09T17:58:04.646Z,99.90
2023-05-09T18:00:31.655Z,99.90
2023-05-09T18:03:00.745Z,99.90
2023-05-09T18:05:28.050Z,99.90
2023-05-09T18:07:55.048Z,99.90
2023-05-09T18:10:22.283Z,99.90
2023-05-09T18:12:49.186Z,99.90
2023-05-09T18:15:16.100Z,99.90
2023-05-09T18:17:43.016Z,99.90
2023-05-09T18:20:10.284Z,99.90
2023-05-09T18:22:38.714Z,99.90
2023-05-09T18:25:07.883Z,99.90
2023-05-09T18:27:34.850Z,99.90
2023-05-09T18:30:01.707Z,99.90
2023-05-09T18:32:29.972Z,99.90
2023-05-09T18:34:57.129Z,99.90
2023-05-09T18:37:24.822Z,99.90
2023-05-09T18:39:51.793Z,99.90
2023-05-09T18:42:19.264Z,99.90
2023-05-09T18:44:46.200Z,99.90
2023-05-09T18:47:13.245Z,99.90
2023-05-09T18:49:41.547Z,99.90
2023-05-09T18:52:12.194Z,99.90
2023-05-09T18:54:41.201Z,99.90
2023-05-09T18:57:08.601Z,99.90
2023-05-09T18:59:35.723Z,99.90
2023-05-09T19:02:02.686Z,99.90
2023-05-09T19:04:29.898Z,99.90
2023-05-09T19:06:59.281Z,99.90
2023-05-09T19:09:26.204Z,99.90
2023-05-09T19:11:53.170Z,99.90
2023-05-09T19:14:20.931Z,99.90
2023-05-09T19:16:48.590Z,99.90
2023-05-09T19:19:15.819Z,99.90
2023-05-09T19:21:43.074Z,99.90
2023-05-09T19:24:10.259Z,99.90
2023-05-09T19:26:37.130Z,99.90
2023-05-09T19:29:08.073Z,99.90
2023-05-09T19:31:36.493Z,99.90
2023-05-09T19:34:03.642Z,99.90
2023-05-09T19:36:30.951Z,99.90
2023-05-09T19:38:57.886Z,99.90
2023-05-09T19:41:24.840Z,99.90
2023-05-09T19:43:52.169Z,99.90
2023-05-09T19:46:19.429Z,99.90
2023-05-09T19:48:49.269Z,99.90
2023-05-09T19:51:16.214Z,99.90
2023-05-09T19:53:43.111Z,99.90
2023-05-09T19:56:10.188Z,99.90
2023-05-09T19:58:37.135Z,99.90
2023-05-09T20:01:06.831Z,99.90
2023-05-09T20:03:36.910Z,99.90
2023-05-09T20:06:04.198Z,99.90
2023-05-09T20:08:31.283Z,99.90
2023-05-09T20:11:00.136Z,99.90
2023-05-09T20:13:27.840Z,99.90
2023-05-09T20:15:55.255Z,99.90
2023-05-09T20:18:22.228Z,99.90
2023-05-09T20:20:49.100Z,99.90
2023-05-09T20:23:15.991Z,99.90
2023-05-09T20:25:42.871Z,99.90
2023-05-09T20:28:11.852Z,99.90
2023-05-09T20:30:38.908Z,99.90
2023-05-09T20:33:05.869Z,99.90
2023-05-09T20:35:32.820Z,99.90
2023-05-09T20:37:59.781Z,99.90
2023-05-09T20:40:26.642Z,99.90
2023-05-09T20:42:53.517Z,99.90
2023-05-09T20:45:20.561Z,99.90
2023-05-09T20:47:47.668Z,99.90
2023-05-09T20:50:14.840Z,99.90
2023-05-09T20:52:41.994Z,99.90
2023-05-09T20:55:09.166Z,99.90
2023-05-09T20:57:36.074Z,99.90
2023-05-09T21:00:03.946Z,99.90
2023-05-09T21:02:31.281Z,99.90
2023-05-09T21:04:58.271Z,99.90
2023-05-09T21:07:25.106Z,99.90
2023-05-09T21:09:54.098Z,99.90
2023-05-09T21:12:21.140Z,99.90
2023-05-09T21:14:49.015Z,99.90
2023-05-09T21:17:15.918Z,99.90
2023-05-09T21:19:42.804Z,99.90
2023-05-09T21:22:09.702Z,99.90
2023-05-09T21:24:36.556Z,99.90
2023-05-09T21:27:03.620Z,99.90
2023-05-09T21:29:30.560Z,99.90
2023-05-09T21:31:57.411Z,99.90
2023-05-09T21:34:24.306Z,99.90
2023-05-09T21:36:51.172Z,99.90
2023-05-09T21:39:18.031Z,99.90
2023-05-09T21:41:44.915Z,99.90
2023-05-09T21:44:12.174Z,99.90
2023-05-09T21:46:39.279Z,99.90
2023-05-09T21:49:06.618Z,99.90
2023-05-09T21:51:34.788Z,99.90
2023-05-09T21:54:01.710Z,99.90
2023-05-09T21:56:28.575Z,99.90
2023-05-09T21:58:55.655Z,99.90
2023-05-09T22:01:22.585Z,99.90
2023-05-09T22:03:49.597Z,99.90
2023-05-09T22:06:16.539Z,99.90
2023-05-09T22:08:43.362Z,99.90
2023-05-09T22:11:10.997Z,99.90
2023-05-09T22:13:39.656Z,99.90
2023-05-09T22:16:07.234Z,99.90
2023-05-09T22:18:34.162Z,99.90
2023-05-09T22:21:01.123Z,99.90
2023-05-09T22:23:27.999Z,99.90
2023-05-09T22:25:54.926Z,99.90
2023-05-09T22:28:21.837Z,99.90
2023-05-09T22:30:48.648Z,99.90
2023-05-09T22:33:15.507Z,99.90
2023-05-09T22:35:42.401Z,99.90
2023-05-09T22:38:09.293Z,99.90
2023-05-09T22:40:36.178Z,99.90
2023-05-09T22:43:03.092Z,99.90
2023-05-09T22:45:30.010Z,99.90
2023-05-09T22:47:57.672Z,99.90
2023-05-09T22:50:24.638Z,99.90
2023-05-09T22:52:51.516Z,99.90
2023-05-09T22:55:18.508Z,99.90
2023-05-09T22:57:45.604Z,99.90
2023-05-09T23:00:13.164Z,99.90
2023-05-09T23:02:40.195Z,99.90
2023-05-09T23:05:08.816Z,99.90
2023-05-09T23:07:35.695Z,99.90
2023-05-09T23:10:02.661Z,99.90
2023-05-09T23:12:29.528Z,99.90
2023-05-09T23:14:56.509Z,99.90
2023-05-09T23:17:23.472Z,99.90
2023-05-09T23:19:50.664Z,99.90
2023-05-09T23:22:17.794Z,99.90
2023-05-09T23:24:44.669Z,99.90
2023-05-09T23:27:11.622Z,99.90
2023-05-09T23:29:38.481Z,99.90
2023-05-09T23:32:05.449Z,99.90
2023-05-09T23:34:32.451Z,99.90
2023-05-09T23:36:59.289Z,99.90
2023-05-09T23:39:26.586Z,99.90
2023-05-09T23:41:53.493Z,99.90
2023-05-09T23:44:20.558Z,99.90
2023-05-09T23:46:47.438Z,99.90
2023-05-09T23:49:14.757Z,99.90
2023-05-09T23:51:41.678Z,99.90
2023-05-09T23:54:08.612Z,99.90
2023-05-09T23:56:35.543Z,99.90
2023-05-09T23:59:02.502Z,99.90
